createdAt,value
2019-02-05T00:02:06.180Z,160.78
2019-02-05T00:04:45.535Z,159.27
2019-02-05T00:07:22.470Z,151.87
2019-02-05T00:09:59.246Z,156.10
2019-02-05T00:12:36.002Z,155.93
2019-02-05T00:15:14.299Z,154.47
2019-02-05T00:17:53.220Z,157.27
2019-02-05T00:20:29.700Z,152.70
2019-02-05T00:23:07.102Z,148.90
2019-02-05T00:25:44.002Z,147.47
2019-02-05T00:28:21.315Z,147.07
2019-02-05T00:30:58.110Z,150.22
2019-02-05T00:33:35.104Z,149.15
2019-02-05T00:36:11.228Z,143.00
2019-02-05T00:38:48.025Z,144.28
2019-02-05T00:41:24.801Z,151.87
2019-02-05T00:44:01.476Z,140.80
2019-02-05T00:46:38.878Z,134.07
2019-02-05T00:49:16.128Z,149.75
2019-02-05T00:51:53.138Z,130.65
2019-02-05T00:54:29.728Z,131.85
2019-02-05T00:57:06.686Z,126.95
2019-02-05T00:59:43.620Z,109.90
2019-02-05T01:02:20.491Z,340.87
2019-02-05T01:04:57.421Z,213.87
2019-02-05T01:07:34.370Z,136.05
2019-02-05T01:10:11.522Z,100.50
2019-02-05T01:12:48.217Z,100.80
2019-02-05T01:15:25.142Z,105.10
2019-02-05T01:18:01.927Z,104.55
2019-02-05T01:20:38.409Z,100.58
2019-02-05T01:23:15.239Z,93.87
2019-02-05T01:25:51.739Z,115.30
2019-02-05T01:28:28.831Z,96.42
2019-02-05T01:31:05.474Z,94.95
2019-02-05T01:33:42.374Z,83.30
2019-02-05T01:36:18.903Z,128.78
2019-02-05T01:38:56.116Z,91.80
2019-02-05T01:41:33.071Z,117.20
2019-02-05T01:44:11.125Z,89.75
2019-02-05T01:46:48.283Z,93.10
2019-02-05T01:49:24.929Z,97.80
2019-02-05T01:52:02.268Z,87.45
2019-02-05T01:54:38.727Z,94.00
2019-02-05T01:57:15.739Z,80.53
2019-02-05T01:59:52.285Z,79.92
2019-02-05T02:02:29.124Z,75.87
2019-02-05T02:05:05.986Z,82.00
2019-02-05T02:07:42.992Z,71.15
2019-02-05T02:10:23.273Z,75.97
2019-02-05T02:13:00.409Z,68.72
2019-02-05T02:15:38.299Z,71.10
2019-02-05T02:18:15.197Z,68.25
2019-02-05T02:20:51.929Z,68.80
2019-02-05T02:23:29.449Z,68.05
2019-02-05T02:26:06.114Z,69.70
2019-02-05T02:28:43.270Z,84.60
2019-02-05T02:31:19.979Z,69.50
2019-02-05T02:33:57.762Z,77.22
2019-02-05T02:36:34.585Z,71.85
2019-02-05T02:39:12.624Z,83.42
2019-02-05T02:41:49.195Z,106.70
2019-02-05T02:44:26.388Z,82.57
2019-02-05T02:47:03.086Z,75.90
2019-02-05T02:49:39.860Z,80.47
2019-02-05T02:52:16.681Z,73.65
2019-02-05T02:54:53.480Z,75.22
2019-02-05T02:57:31.463Z,76.10
2019-02-05T03:00:09.484Z,81.08
2019-02-05T03:02:46.418Z,71.10
2019-02-05T03:05:25.374Z,63.10
2019-02-05T03:08:01.627Z,73.42
2019-02-05T03:10:38.888Z,65.83
2019-02-05T03:13:15.517Z,78.22
2019-02-05T03:15:52.786Z,66.00
2019-02-05T03:18:29.086Z,66.90
2019-02-05T03:21:06.080Z,65.45
2019-02-05T03:23:42.767Z,65.47
2019-02-05T03:26:19.645Z,62.38
2019-02-05T03:28:56.133Z,65.17
2019-02-05T03:31:33.085Z,58.35
2019-02-05T03:34:11.473Z,70.30
2019-02-05T03:36:48.626Z,58.25
2019-02-05T03:39:25.294Z,63.50
2019-02-05T03:42:02.249Z,65.30
2019-02-05T03:44:39.077Z,57.13
2019-02-05T03:47:16.317Z,55.03
2019-02-05T03:49:53.412Z,59.90
2019-02-05T03:52:36.481Z,85.80
2019-02-05T03:55:55.974Z,57.62
2019-02-05T03:58:57.334Z,60.45
2019-02-05T04:02:00.277Z,60.55
2019-02-05T04:05:17.270Z,59.25
2019-02-05T04:08:28.744Z,54.73
2019-02-05T04:11:45.017Z,51.30
2019-02-05T04:14:56.155Z,57.80
2019-02-05T04:18:08.011Z,52.98
2019-02-05T04:21:11.475Z,53.50
2019-02-05T04:24:23.561Z,54.67
2019-02-05T04:27:46.917Z,49.30
2019-02-05T04:30:43.695Z,44.55
2019-02-05T04:33:54.355Z,50.95
2019-02-05T04:36:58.883Z,49.80
2019-02-05T04:40:08.866Z,43.90
2019-02-05T04:43:43.040Z,51.98
2019-02-05T04:46:55.268Z,43.83
2019-02-05T04:50:06.029Z,48.30
2019-02-05T04:53:13.191Z,47.83
2019-02-05T04:56:19.035Z,47.23
2019-02-05T04:59:22.340Z,45.88
2019-02-05T05:02:30.640Z,48.28
2019-02-05T05:05:28.969Z,44.13
2019-02-05T05:08:30.791Z,44.50
2019-02-05T05:11:07.162Z,42.70
2019-02-05T05:13:44.277Z,45.92
2019-02-05T05:16:21.343Z,43.68
2019-02-05T05:18:58.769Z,42.38
2019-02-05T05:21:35.788Z,42.38
2019-02-05T05:24:12.580Z,46.10
2019-02-05T05:26:49.560Z,42.23
2019-02-05T05:29:26.104Z,45.70
2019-02-05T05:32:03.034Z,39.95
2019-02-05T05:34:39.437Z,47.58
2019-02-05T05:37:12.085Z,41.48
2019-02-05T05:39:48.803Z,39.60
2019-02-05T05:42:25.900Z,32.98
2019-02-05T05:45:03.038Z,37.67
2019-02-05T05:47:40.012Z,41.13
2019-02-05T05:50:21.240Z,41.45
2019-02-05T05:52:56.492Z,41.20
2019-02-05T05:55:33.370Z,41.08
2019-02-05T05:58:21.913Z,39.88
2019-02-05T06:00:48.488Z,41.25
2019-02-05T06:03:24.901Z,38.02
2019-02-05T06:06:01.723Z,41.77
2019-02-05T06:08:38.823Z,35.20
2019-02-05T06:11:16.198Z,34.18
2019-02-05T06:13:53.962Z,42.00
2019-02-05T06:16:32.030Z,46.48
2019-02-05T06:19:08.824Z,36.85
2019-02-05T06:21:45.199Z,40.85
2019-02-05T06:24:21.693Z,38.80
2019-02-05T06:26:58.565Z,36.10
2019-02-05T06:29:34.937Z,32.78
2019-02-05T06:32:13.716Z,35.38
2019-02-05T06:34:50.310Z,41.70
2019-02-05T06:37:27.141Z,37.70
2019-02-05T06:40:04.735Z,34.48
2019-02-05T06:42:42.763Z,39.65
2019-02-05T06:45:20.657Z,38.05
2019-02-05T06:47:57.781Z,44.27
2019-02-05T06:50:34.361Z,44.23
2019-02-05T06:53:11.442Z,41.23
2019-02-05T06:55:48.203Z,36.50
2019-02-05T06:58:24.857Z,39.80
2019-02-05T07:01:01.831Z,41.95
2019-02-05T07:03:38.518Z,41.58
2019-02-05T07:06:16.241Z,39.58
2019-02-05T07:08:53.631Z,37.10
2019-02-05T07:11:32.058Z,40.90
2019-02-05T07:14:08.874Z,48.05
2019-02-05T07:16:45.829Z,43.23
2019-02-05T07:19:22.665Z,38.90
2019-02-05T07:21:59.435Z,44.00
2019-02-05T07:24:36.143Z,39.48
2019-02-05T07:27:12.810Z,45.48
2019-02-05T07:29:49.477Z,39.65
2019-02-05T07:32:29.426Z,45.12
2019-02-05T07:35:05.627Z,47.23
2019-02-05T07:37:42.849Z,47.13
2019-02-05T07:40:20.481Z,41.23
2019-02-05T07:42:56.697Z,44.63
2019-02-05T07:45:33.757Z,47.05
2019-02-05T07:48:10.882Z,42.10
2019-02-05T07:50:48.236Z,44.53
2019-02-05T07:53:25.608Z,41.00
2019-02-05T07:56:02.635Z,81.72
2019-02-05T07:58:39.375Z,52.08
2019-02-05T08:01:17.665Z,39.42
2019-02-05T08:03:53.668Z,51.35
2019-02-05T08:06:30.486Z,44.88
2019-02-05T08:09:08.552Z,40.90
2019-02-05T08:11:46.744Z,41.55
2019-02-05T08:14:24.879Z,45.05
2019-02-05T08:17:01.475Z,41.80
2019-02-05T08:19:41.218Z,36.80
2019-02-05T08:22:17.667Z,35.58
2019-02-05T08:24:54.464Z,35.30
2019-02-05T08:27:31.731Z,35.63
2019-02-05T08:30:09.748Z,41.75
2019-02-05T08:32:46.607Z,43.65
2019-02-05T08:35:23.718Z,38.88
2019-02-05T08:38:00.536Z,40.67
2019-02-05T08:40:37.873Z,37.70
2019-02-05T08:43:14.595Z,48.70
2019-02-05T08:45:56.824Z,40.05
2019-02-05T08:48:29.752Z,39.92
2019-02-05T08:51:07.093Z,44.03
2019-02-05T08:53:44.708Z,44.65
2019-02-05T08:56:21.751Z,40.20
2019-02-05T08:58:59.444Z,42.03
2019-02-05T09:01:36.235Z,40.33
2019-02-05T09:04:12.951Z,65.03
2019-02-05T09:06:50.034Z,120.17
2019-02-05T09:09:27.011Z,45.20
2019-02-05T09:12:03.907Z,35.73
2019-02-05T09:14:40.598Z,41.65
2019-02-05T09:17:17.300Z,40.48
2019-02-05T09:19:54.095Z,38.00
2019-02-05T09:22:30.767Z,42.23
2019-02-05T09:25:07.738Z,49.00
2019-02-05T09:27:44.294Z,44.58
2019-02-05T09:30:23.409Z,43.70
2019-02-05T09:33:01.831Z,42.25
2019-02-05T09:35:41.641Z,46.88
2019-02-05T09:38:18.791Z,42.23
2019-02-05T09:40:56.150Z,41.33
2019-02-05T09:43:32.965Z,43.00
2019-02-05T09:46:10.161Z,38.73
2019-02-05T09:48:47.087Z,44.13
2019-02-05T09:51:23.619Z,41.45
2019-02-05T09:54:00.704Z,44.03
2019-02-05T09:56:37.431Z,39.90
2019-02-05T09:59:14.175Z,40.50
2019-02-05T10:01:51.048Z,42.20
2019-02-05T10:04:27.368Z,46.10
2019-02-05T10:07:03.983Z,41.83
2019-02-05T10:09:40.729Z,49.03
2019-02-05T10:12:18.574Z,42.70
2019-02-05T10:14:55.228Z,45.15
2019-02-05T10:17:33.002Z,43.60
2019-02-05T10:20:10.054Z,47.55
2019-02-05T10:22:47.926Z,50.73
2019-02-05T10:25:24.759Z,57.27
2019-02-05T10:28:04.056Z,46.10
2019-02-05T10:30:42.955Z,49.98
2019-02-05T10:33:20.233Z,51.48
2019-02-05T10:35:56.642Z,51.25
2019-02-05T10:38:33.731Z,47.20
2019-02-05T10:41:10.691Z,45.20
2019-02-05T10:43:47.627Z,48.90
2019-02-05T10:46:25.836Z,64.25
2019-02-05T10:49:03.422Z,58.92
2019-02-05T10:51:40.968Z,69.17
2019-02-05T10:54:17.840Z,64.12
2019-02-05T10:56:54.852Z,56.65
2019-02-05T10:59:31.523Z,54.27
2019-02-05T11:02:08.557Z,59.40
2019-02-05T11:04:45.026Z,68.72
2019-02-05T11:07:22.175Z,72.95
2019-02-05T11:09:59.041Z,59.42
2019-02-05T11:12:36.364Z,59.08
2019-02-05T11:15:15.464Z,61.00
2019-02-05T11:17:52.693Z,63.87
2019-02-05T11:20:30.335Z,55.20
2019-02-05T11:23:07.873Z,65.47
2019-02-05T11:25:44.183Z,79.05
2019-02-05T11:28:24.705Z,60.08
2019-02-05T11:31:03.236Z,59.73
2019-02-05T11:33:40.148Z,59.73
2019-02-05T11:36:16.903Z,80.70
2019-02-05T11:38:55.346Z,81.80
2019-02-05T11:41:32.077Z,82.25
2019-02-05T11:44:08.837Z,81.55
2019-02-05T11:46:46.545Z,73.45
2019-02-05T11:49:23.355Z,81.92
2019-02-05T11:52:00.148Z,79.22
2019-02-05T11:54:38.679Z,84.22
2019-02-05T11:57:15.400Z,76.85
2019-02-05T11:59:52.419Z,83.03
2019-02-05T12:02:29.108Z,85.50
2019-02-05T12:05:05.715Z,78.52
2019-02-05T12:07:42.669Z,90.80
2019-02-05T12:10:19.748Z,78.72
2019-02-05T12:12:56.519Z,76.53
2019-02-05T12:15:33.185Z,76.37
2019-02-05T12:18:09.508Z,79.95
2019-02-05T12:20:45.226Z,75.85
2019-02-05T12:23:22.387Z,85.05
2019-02-05T12:25:59.691Z,81.92
2019-02-05T12:28:36.516Z,86.42
2019-02-05T12:31:13.630Z,81.70
2019-02-05T12:33:50.297Z,90.15
2019-02-05T12:36:27.169Z,83.80
2019-02-05T12:39:04.113Z,82.17
2019-02-05T12:41:42.242Z,91.42
2019-02-05T12:44:18.957Z,94.17
2019-02-05T12:46:56.079Z,86.57
2019-02-05T12:49:32.536Z,85.15
2019-02-05T12:52:09.805Z,89.03
2019-02-05T12:54:46.832Z,91.65
2019-02-05T12:57:22.806Z,99.40
2019-02-05T12:59:59.581Z,92.17
2019-02-05T13:02:36.437Z,87.12
2019-02-05T13:05:13.829Z,91.65
2019-02-05T13:07:50.776Z,94.03
2019-02-05T13:10:29.833Z,112.32
2019-02-05T13:13:07.638Z,130.20
2019-02-05T13:15:44.210Z,154.95
2019-02-05T13:18:21.157Z,115.15
2019-02-05T13:20:57.562Z,98.15
2019-02-05T13:23:34.074Z,102.95
2019-02-05T13:26:11.349Z,158.00
2019-02-05T13:28:48.477Z,120.15
2019-02-05T13:31:26.510Z,166.32
2019-02-05T13:34:04.536Z,169.37
2019-02-05T13:36:41.542Z,198.15
2019-02-05T13:39:17.949Z,217.30
2019-02-05T13:41:55.128Z,279.98
2019-02-05T13:44:33.473Z,257.92
2019-02-05T13:47:10.999Z,237.68
2019-02-05T13:49:48.415Z,206.65
2019-02-05T13:52:26.452Z,195.00
2019-02-05T13:55:03.234Z,170.30
2019-02-05T13:57:39.656Z,148.32
2019-02-05T14:00:34.635Z,146.07
2019-02-05T14:03:12.780Z,154.60
2019-02-05T14:05:51.814Z,152.40
2019-02-05T14:08:28.958Z,151.47
2019-02-05T14:11:07.842Z,139.72
2019-02-05T14:13:54.031Z,136.55
2019-02-05T14:16:32.487Z,126.58
2019-02-05T14:19:11.935Z,145.72
2019-02-05T14:21:48.741Z,145.90
2019-02-05T14:24:26.450Z,152.00
2019-02-05T14:27:03.578Z,148.50
2019-02-05T14:29:42.268Z,175.00
2019-02-05T14:32:25.244Z,155.12
2019-02-05T14:35:02.825Z,161.25
2019-02-05T14:37:39.015Z,139.12
2019-02-05T14:40:17.135Z,132.60
2019-02-05T14:42:55.000Z,132.93
2019-02-05T14:45:32.401Z,119.93
2019-02-05T14:48:09.698Z,119.13
2019-02-05T14:50:47.073Z,119.10
2019-02-05T14:53:24.015Z,114.97
2019-02-05T14:56:00.549Z,114.97
2019-02-05T14:58:37.460Z,118.62
2019-02-05T15:01:15.842Z,115.55
2019-02-05T15:03:53.846Z,120.75
2019-02-05T15:06:31.604Z,115.42
2019-02-05T15:09:09.826Z,117.37
2019-02-05T15:11:47.008Z,107.67
2019-02-05T15:14:24.529Z,119.37
2019-02-05T15:17:01.819Z,111.72
2019-02-05T15:19:38.737Z,115.92
2019-02-05T15:22:16.651Z,113.03
2019-02-05T15:24:54.342Z,113.55
2019-02-05T15:27:31.168Z,119.00
2019-02-05T15:30:10.542Z,120.22
2019-02-05T15:32:54.815Z,116.35
2019-02-05T15:35:31.236Z,106.37
2019-02-05T15:38:08.846Z,110.05
2019-02-05T15:40:47.100Z,106.58
2019-02-05T15:43:24.688Z,107.95
2019-02-05T15:46:02.095Z,99.92
2019-02-05T15:48:39.017Z,95.85
2019-02-05T15:51:15.984Z,99.55
2019-02-05T15:53:54.000Z,116.88
2019-02-05T15:56:30.999Z,103.25
2019-02-05T15:59:08.208Z,127.60
2019-02-05T16:01:45.995Z,103.38
2019-02-05T16:04:24.090Z,121.47
2019-02-05T16:07:02.162Z,173.25
2019-02-05T16:09:40.200Z,136.25
2019-02-05T16:12:17.616Z,127.40
2019-02-05T16:14:55.280Z,124.40
2019-02-05T16:17:32.690Z,113.70
2019-02-05T16:20:10.424Z,118.57
2019-02-05T16:22:47.313Z,114.77
2019-02-05T16:25:24.496Z,118.10
2019-02-05T16:28:03.372Z,111.83
2019-02-05T16:30:39.942Z,121.60
2019-02-05T16:33:17.133Z,118.85
2019-02-05T16:35:55.191Z,105.47
2019-02-05T16:38:32.783Z,110.03
2019-02-05T16:41:09.578Z,126.00
2019-02-05T16:43:45.923Z,124.87
2019-02-05T16:46:23.648Z,123.00
2019-02-05T16:49:00.797Z,130.22
2019-02-05T16:51:38.381Z,122.75
2019-02-05T16:54:16.112Z,120.33
2019-02-05T16:56:52.635Z,114.50
2019-02-05T16:59:30.673Z,127.40
2019-02-05T17:02:07.632Z,125.62
2019-02-05T17:04:45.017Z,126.00
2019-02-05T17:07:24.250Z,127.35
2019-02-05T17:09:59.651Z,125.80
2019-02-05T17:12:37.193Z,120.02
2019-02-05T17:15:16.181Z,126.97
2019-02-05T17:17:53.755Z,126.35
2019-02-05T17:20:32.753Z,136.45
2019-02-05T17:23:10.219Z,134.18
2019-02-05T17:25:47.117Z,136.47
2019-02-05T17:28:24.336Z,153.70
2019-02-05T17:31:00.880Z,136.37
2019-02-05T17:33:38.814Z,131.43
2019-02-05T17:36:16.066Z,131.85
2019-02-05T17:38:52.834Z,120.25
2019-02-05T17:41:29.645Z,134.75
2019-02-05T17:44:06.164Z,137.43
2019-02-05T17:46:43.091Z,131.72
2019-02-05T17:49:19.819Z,123.20
2019-02-05T17:51:56.931Z,132.97
2019-02-05T17:54:33.447Z,130.20
2019-02-05T17:57:10.293Z,136.52
2019-02-05T17:59:47.074Z,129.47
2019-02-05T18:02:23.727Z,136.22
2019-02-05T18:05:00.703Z,131.22
2019-02-05T18:07:37.822Z,129.63
2019-02-05T18:10:17.548Z,122.72
2019-02-05T18:12:55.928Z,114.88
2019-02-05T18:15:35.387Z,113.83
2019-02-05T18:18:12.364Z,122.70
2019-02-05T18:20:50.312Z,129.12
2019-02-05T18:23:26.976Z,124.18
2019-02-05T18:26:03.828Z,128.72
2019-02-05T18:28:41.547Z,123.55
2019-02-05T18:31:20.037Z,119.00
2019-02-05T18:33:56.667Z,133.37
2019-02-05T18:36:33.980Z,114.52
2019-02-05T18:39:12.921Z,127.80
2019-02-05T18:41:50.626Z,127.40
2019-02-05T18:44:27.528Z,117.05
2019-02-05T18:47:05.159Z,118.72
2019-02-05T18:49:42.099Z,115.50
2019-02-05T18:52:19.012Z,123.30
2019-02-05T18:54:56.178Z,122.50
2019-02-05T18:57:32.874Z,112.17
2019-02-05T19:00:12.891Z,139.65
2019-02-05T19:02:49.679Z,152.85
2019-02-05T19:05:27.322Z,164.00
2019-02-05T19:08:04.042Z,213.37
2019-02-05T19:10:40.984Z,190.75
2019-02-05T19:13:17.673Z,207.83
2019-02-05T19:15:56.467Z,210.08
2019-02-05T19:18:33.136Z,215.43
2019-02-05T19:21:09.775Z,184.52
2019-02-05T19:23:47.534Z,168.35
2019-02-05T19:26:30.270Z,184.85
2019-02-05T19:29:18.214Z,179.72
2019-02-05T19:31:45.005Z,168.93
2019-02-05T19:34:22.541Z,148.47
2019-02-05T19:36:59.475Z,156.63
2019-02-05T19:39:36.368Z,152.87
2019-02-05T19:42:12.873Z,143.45
2019-02-05T19:44:59.357Z,155.45
2019-02-05T19:47:39.197Z,147.32
2019-02-05T19:50:14.964Z,148.25
2019-02-05T19:52:51.923Z,143.43
2019-02-05T19:55:28.882Z,137.43
2019-02-05T19:58:05.613Z,139.10
2019-02-05T20:00:42.656Z,134.47
2019-02-05T20:03:19.659Z,127.65
2019-02-05T20:05:56.564Z,132.93
2019-02-05T20:08:32.763Z,130.93
2019-02-05T20:11:09.584Z,132.45
2019-02-05T20:13:46.183Z,124.75
2019-02-05T20:16:23.197Z,131.87
2019-02-05T20:18:59.703Z,133.10
2019-02-05T20:21:36.852Z,141.82
2019-02-05T20:24:14.346Z,142.90
2019-02-05T20:26:51.711Z,133.35
2019-02-05T20:29:28.467Z,129.93
2019-02-05T20:32:05.345Z,138.30
2019-02-05T20:34:42.822Z,141.12
2019-02-05T20:37:19.987Z,133.63
2019-02-05T20:39:56.895Z,136.00
2019-02-05T20:42:34.456Z,138.72
2019-02-05T20:45:11.719Z,138.25
2019-02-05T20:47:48.702Z,140.35
2019-02-05T20:50:25.390Z,133.18
2019-02-05T20:53:13.118Z,130.87
2019-02-05T20:55:41.192Z,139.80
2019-02-05T20:58:17.429Z,137.05
2019-02-05T21:00:54.398Z,142.35
2019-02-05T21:03:31.563Z,143.10
2019-02-05T21:06:08.435Z,138.10
2019-02-05T21:08:44.992Z,133.90
2019-02-05T21:11:21.753Z,146.53
2019-02-05T21:13:58.549Z,138.12
2019-02-05T21:16:37.130Z,149.05
2019-02-05T21:19:13.706Z,135.97
2019-02-05T21:21:50.580Z,139.90
2019-02-05T21:24:27.440Z,143.68
2019-02-05T21:27:04.286Z,138.10
2019-02-05T21:29:40.884Z,147.02
2019-02-05T21:32:17.703Z,150.57
2019-02-05T21:34:54.971Z,136.70
2019-02-05T21:37:32.465Z,150.47
2019-02-05T21:40:10.590Z,144.07
2019-02-05T21:42:47.790Z,148.02
2019-02-05T21:45:25.749Z,144.28
2019-02-05T21:48:02.691Z,141.57
2019-02-05T21:50:39.672Z,138.75
2019-02-05T21:53:16.346Z,155.67
2019-02-05T21:55:53.516Z,144.70
2019-02-05T21:58:30.532Z,135.12
2019-02-05T22:01:07.494Z,140.97
2019-02-05T22:03:44.869Z,154.42
2019-02-05T22:06:21.675Z,154.72
2019-02-05T22:08:58.838Z,144.95
2019-02-05T22:11:35.782Z,134.70
2019-02-05T22:14:12.820Z,146.10
2019-02-05T22:16:49.294Z,155.45
2019-02-05T22:19:26.474Z,143.93
2019-02-05T22:22:03.024Z,147.17
2019-02-05T22:24:40.244Z,147.65
2019-02-05T22:27:20.188Z,146.22
2019-02-05T22:29:57.161Z,145.85
2019-02-05T22:32:33.899Z,140.55
2019-02-05T22:35:11.898Z,154.45
2019-02-05T22:37:48.930Z,154.60
2019-02-05T22:40:26.989Z,173.78
2019-02-05T22:43:03.659Z,151.93
2019-02-05T22:45:41.245Z,149.77
2019-02-05T22:48:18.282Z,151.32
2019-02-05T22:50:54.815Z,149.62
2019-02-05T22:53:31.838Z,149.00
2019-02-05T22:56:08.712Z,148.95
2019-02-05T22:58:45.308Z,164.35
2019-02-05T23:02:01.194Z,173.20
2019-02-05T23:05:15.513Z,158.45
2019-02-05T23:07:52.356Z,162.88
2019-02-05T23:10:50.249Z,154.95
2019-02-05T23:13:27.409Z,155.72
2019-02-05T23:16:04.457Z,161.05
2019-02-05T23:18:41.737Z,179.20
2019-02-05T23:21:18.563Z,159.05
2019-02-05T23:23:55.528Z,176.12
2019-02-05T23:26:32.195Z,173.20
2019-02-05T23:29:09.150Z,167.22
2019-02-05T23:31:45.860Z,165.15
2019-02-05T23:34:22.794Z,189.55
2019-02-05T23:37:00.317Z,169.02
2019-02-05T23:39:37.608Z,166.90
2019-02-05T23:42:13.931Z,176.53
2019-02-05T23:44:51.199Z,169.30
2019-02-05T23:47:30.013Z,183.40
2019-02-05T23:50:08.550Z,184.07
2019-02-05T23:52:45.595Z,191.53
2019-02-05T23:55:22.578Z,177.35
2019-02-05T23:57:59.337Z,196.18
